createdAt,value
2022-12-22T00:01:07.482Z,3.10
2022-12-22T00:03:53.370Z,2.73
2022-12-22T00:06:39.092Z,2.80
2022-12-22T00:09:24.886Z,3.17
2022-12-22T00:12:10.793Z,3.03
2022-12-22T00:14:56.351Z,2.77
2022-12-22T00:17:45.630Z,3.07
2022-12-22T00:20:33.021Z,2.97
2022-12-22T00:23:18.936Z,2.40
2022-12-22T00:26:05.126Z,2.67
2022-12-22T00:28:51.598Z,2.90
2022-12-22T00:31:38.873Z,2.50
2022-12-22T00:34:32.736Z,2.83
2022-12-22T00:37:18.743Z,2.80
2022-12-22T00:40:04.942Z,3.17
2022-12-22T00:42:50.636Z,2.77
2022-12-22T00:45:35.909Z,3.33
2022-12-22T00:48:22.291Z,2.60
2022-12-22T00:51:09.536Z,3.27
2022-12-22T00:53:54.957Z,2.70
2022-12-22T00:56:41.228Z,3.07
2022-12-22T00:59:29.755Z,3.20
2022-12-22T01:02:15.576Z,3.00
2022-12-22T01:05:01.262Z,2.97
2022-12-22T01:07:49.166Z,2.90
2022-12-22T01:10:35.588Z,2.53
2022-12-22T01:13:21.210Z,2.90
2022-12-22T01:16:07.138Z,3.27
2022-12-22T01:18:52.591Z,2.90
2022-12-22T01:21:39.098Z,3.00
2022-12-22T01:24:30.621Z,3.13
2022-12-22T01:27:16.525Z,2.33
2022-12-22T01:30:02.398Z,2.77
2022-12-22T01:32:48.106Z,2.67
2022-12-22T01:35:38.734Z,2.57
2022-12-22T01:38:24.180Z,2.47
2022-12-22T01:41:11.434Z,2.60
2022-12-22T01:43:57.301Z,2.50
2022-12-22T01:46:45.950Z,2.70
2022-12-22T01:49:37.335Z,2.43
2022-12-22T01:52:24.731Z,2.50
2022-12-22T01:55:11.430Z,2.27
2022-12-22T01:57:58.229Z,2.93
2022-12-22T02:00:45.112Z,2.83
2022-12-22T02:03:35.182Z,2.60
2022-12-22T02:06:33.722Z,2.60
2022-12-22T02:09:39.735Z,2.50
2022-12-22T02:12:34.430Z,2.57
2022-12-22T02:15:29.090Z,2.43
2022-12-22T02:18:25.215Z,2.37
2022-12-22T02:21:14.969Z,2.50
2022-12-22T02:24:14.834Z,2.60
2022-12-22T02:27:06.202Z,2.30
2022-12-22T02:29:55.622Z,2.40
2022-12-22T02:32:42.450Z,2.50
2022-12-22T02:35:30.947Z,2.20
2022-12-22T02:38:25.721Z,2.20
2022-12-22T02:41:23.468Z,2.23
2022-12-22T02:44:29.721Z,2.57
2022-12-22T02:47:20.474Z,2.03
2022-12-22T02:50:12.732Z,2.30
2022-12-22T02:53:01.205Z,2.60
2022-12-22T02:55:47.919Z,2.40
2022-12-22T02:58:34.515Z,2.27
2022-12-22T03:01:23.934Z,2.27
2022-12-22T03:04:10.957Z,2.40
2022-12-22T03:06:56.729Z,2.30
2022-12-22T03:09:42.367Z,2.13
2022-12-22T03:12:28.027Z,2.17
2022-12-22T03:15:14.466Z,2.33
2022-12-22T03:18:01.599Z,1.93
2022-12-22T03:20:47.168Z,2.07
2022-12-22T03:23:32.834Z,2.20
2022-12-22T03:26:00.960Z,2.10
2022-12-22T03:28:30.245Z,2.30
2022-12-22T03:31:00.890Z,2.00
2022-12-22T03:33:31.559Z,2.20
2022-12-22T03:36:00.551Z,1.80
2022-12-22T03:38:29.219Z,2.00
2022-12-22T03:40:57.450Z,1.70
2022-12-22T03:43:42.925Z,1.57
2022-12-22T03:46:30.070Z,2.50
2022-12-22T03:49:12.650Z,1.77
2022-12-22T03:51:43.839Z,2.20
2022-12-22T03:54:14.007Z,1.90
2022-12-22T03:56:42.492Z,2.00
2022-12-22T03:59:11.087Z,2.17
2022-12-22T04:01:41.260Z,2.10
2022-12-22T04:04:11.405Z,2.03
2022-12-22T04:06:39.719Z,2.10
2022-12-22T04:09:08.045Z,2.50
2022-12-22T04:11:53.944Z,2.50
2022-12-22T04:14:25.294Z,2.20
2022-12-22T04:16:56.186Z,2.00
2022-12-22T04:19:25.821Z,2.00
2022-12-22T04:21:55.066Z,2.00
2022-12-22T04:24:23.319Z,2.07
2022-12-22T04:26:51.910Z,2.57
2022-12-22T04:29:20.058Z,2.13
2022-12-22T04:31:48.179Z,2.53
2022-12-22T04:34:16.245Z,2.10
2022-12-22T04:36:45.796Z,1.83
2022-12-22T04:39:13.951Z,2.23
2022-12-22T04:41:42.024Z,2.30
2022-12-22T04:44:10.081Z,2.10
2022-12-22T04:46:38.136Z,2.20
2022-12-22T04:49:06.195Z,2.10
2022-12-22T04:51:34.298Z,2.40
2022-12-22T04:54:03.856Z,2.60
2022-12-22T04:56:31.988Z,2.53
2022-12-22T04:59:00.034Z,2.23
2022-12-22T05:01:28.475Z,2.30
2022-12-22T05:03:56.635Z,2.30
2022-12-22T05:06:24.680Z,2.50
2022-12-22T05:08:52.838Z,2.40
2022-12-22T05:11:22.383Z,2.90
2022-12-22T05:13:50.419Z,2.83
2022-12-22T05:16:19.068Z,2.40
2022-12-22T05:18:47.602Z,2.10
2022-12-22T05:21:17.389Z,2.10
2022-12-22T05:23:45.992Z,2.20
2022-12-22T05:26:14.855Z,1.93
2022-12-22T05:28:46.233Z,2.10
2022-12-22T05:31:17.978Z,2.20
2022-12-22T05:33:46.464Z,2.53
2022-12-22T05:36:14.738Z,2.40
2022-12-22T05:38:44.452Z,2.60
2022-12-22T05:41:12.983Z,2.43
2022-12-22T05:43:41.228Z,2.23
2022-12-22T05:46:12.233Z,2.10
2022-12-22T05:48:41.088Z,2.37
2022-12-22T05:51:10.535Z,2.43
2022-12-22T05:53:39.719Z,1.80
2022-12-22T05:56:09.234Z,2.00
2022-12-22T05:58:39.531Z,2.23
2022-12-22T06:01:08.540Z,1.97
2022-12-22T06:03:38.100Z,2.07
2022-12-22T06:06:06.736Z,2.03
2022-12-22T06:08:34.850Z,1.83
2022-12-22T06:11:02.912Z,1.70
2022-12-22T06:13:31.075Z,2.10
2022-12-22T06:15:59.228Z,1.80
2022-12-22T06:18:28.290Z,2.13
2022-12-22T06:20:57.808Z,1.70
2022-12-22T06:23:25.958Z,2.00
2022-12-22T06:25:57.866Z,2.00
2022-12-22T06:28:26.160Z,2.00
2022-12-22T06:30:55.605Z,1.70
2022-12-22T06:33:23.798Z,1.80
2022-12-22T06:35:58.133Z,1.80
2022-12-22T06:38:29.094Z,1.93
2022-12-22T06:40:57.537Z,2.00
2022-12-22T06:43:24.934Z,1.90
2022-12-22T06:45:53.528Z,1.80
2022-12-22T06:48:22.174Z,1.80
2022-12-22T06:50:50.220Z,2.03
2022-12-22T06:53:18.666Z,1.73
2022-12-22T06:55:48.276Z,2.17
2022-12-22T06:58:16.529Z,1.90
2022-12-22T07:00:48.412Z,2.10
2022-12-22T07:03:16.733Z,1.90
2022-12-22T07:05:45.193Z,2.00
2022-12-22T07:08:13.306Z,1.80
2022-12-22T07:10:59.691Z,1.87
2022-12-22T07:13:31.974Z,1.93
2022-12-22T07:16:01.895Z,2.07
2022-12-22T07:18:31.644Z,2.23
2022-12-22T07:21:00.847Z,2.03
2022-12-22T07:23:29.779Z,2.37
2022-12-22T07:25:58.170Z,1.97
2022-12-22T07:28:28.047Z,2.00
2022-12-22T07:30:56.616Z,1.80
2022-12-22T07:33:24.718Z,1.70
2022-12-22T07:36:04.085Z,1.87
2022-12-22T07:38:34.373Z,2.00
2022-12-22T07:41:05.277Z,1.50
2022-12-22T07:43:34.378Z,1.60
2022-12-22T07:46:02.569Z,1.60
2022-12-22T07:48:48.250Z,1.53
2022-12-22T07:51:16.390Z,1.73
2022-12-22T07:53:44.520Z,1.60
2022-12-22T07:56:12.680Z,1.70
2022-12-22T07:58:42.132Z,2.30
2022-12-22T08:01:10.357Z,1.70
2022-12-22T08:03:38.377Z,2.63
2022-12-22T08:06:07.105Z,2.03
2022-12-22T08:08:35.916Z,1.87
2022-12-22T08:11:04.578Z,1.93
2022-12-22T08:13:32.932Z,1.57
2022-12-22T08:16:06.030Z,2.00
2022-12-22T08:18:34.446Z,2.13
2022-12-22T08:21:03.010Z,2.03
2022-12-22T08:23:31.665Z,1.73
2022-12-22T08:26:03.791Z,1.77
2022-12-22T08:28:35.345Z,1.83
2022-12-22T08:31:05.761Z,1.60
2022-12-22T08:33:33.919Z,1.80
2022-12-22T08:36:07.745Z,1.90
2022-12-22T08:38:37.687Z,1.73
2022-12-22T08:41:06.363Z,1.50
2022-12-22T08:43:34.637Z,1.87
2022-12-22T08:46:04.317Z,1.60
2022-12-22T08:48:32.589Z,1.70
2022-12-22T08:51:00.786Z,1.70
2022-12-22T08:56:16.895Z,1.93
2022-12-22T08:58:45.106Z,1.70
2022-12-22T09:01:19.112Z,1.70
2022-12-22T09:03:51.070Z,1.93
2022-12-22T09:06:23.743Z,1.60
2022-12-22T09:08:56.465Z,1.90
2022-12-22T09:11:25.240Z,1.70
2022-12-22T09:13:54.511Z,1.40
2022-12-22T09:16:25.499Z,1.70
2022-12-22T09:18:53.696Z,1.70
2022-12-22T09:21:22.108Z,1.77
2022-12-22T09:23:50.183Z,1.90
2022-12-22T09:26:20.704Z,1.67
2022-12-22T09:28:50.672Z,1.70
2022-12-22T09:31:19.642Z,1.73
2022-12-22T09:33:49.496Z,1.80
2022-12-22T09:36:19.294Z,1.80
2022-12-22T09:38:47.630Z,2.00
2022-12-22T09:41:19.720Z,2.33
2022-12-22T09:43:47.926Z,2.03
2022-12-22T09:46:22.501Z,1.80
2022-12-22T09:48:52.528Z,1.87
2022-12-22T09:51:26.786Z,1.90
2022-12-22T09:53:58.364Z,2.00
2022-12-22T09:56:28.115Z,2.20
2022-12-22T09:58:56.299Z,2.33
2022-12-22T10:01:42.791Z,1.70
2022-12-22T10:04:22.612Z,1.87
2022-12-22T10:06:59.152Z,1.80
2022-12-22T10:12:22.250Z,2.10
2022-12-22T10:14:52.750Z,1.77
2022-12-22T10:17:23.930Z,1.90
2022-12-22T10:19:55.585Z,1.90
2022-12-22T10:22:29.698Z,1.80
2022-12-22T10:24:58.184Z,1.73
2022-12-22T10:27:30.146Z,2.20
2022-12-22T10:30:19.944Z,2.20
2022-12-22T10:33:03.900Z,1.70
2022-12-22T10:35:45.299Z,2.80
2022-12-22T10:38:22.299Z,3.37
2022-12-22T10:40:55.314Z,1.80
2022-12-22T10:43:30.761Z,1.70
2022-12-22T10:45:59.804Z,2.07
2022-12-22T10:48:31.718Z,1.87
2022-12-22T10:51:03.033Z,2.20
2022-12-22T10:53:49.073Z,1.70
2022-12-22T10:56:25.490Z,2.43
2022-12-22T10:58:55.876Z,2.37
2022-12-22T11:01:30.608Z,1.90
2022-12-22T11:04:00.135Z,2.03
2022-12-22T11:06:29.669Z,2.20
2022-12-22T11:09:23.791Z,2.10
2022-12-22T11:11:51.955Z,1.90
2022-12-22T11:14:31.358Z,2.10
2022-12-22T11:17:04.150Z,1.90
2022-12-22T11:19:47.816Z,2.30
2022-12-22T11:22:28.960Z,1.80
2022-12-22T11:25:14.470Z,2.23
2022-12-22T11:27:55.196Z,2.00
2022-12-22T11:30:35.020Z,2.10
2022-12-22T11:33:27.343Z,2.20
2022-12-22T11:36:00.757Z,2.20
2022-12-22T11:38:45.731Z,2.20
2022-12-22T11:41:26.335Z,2.07
2022-12-22T11:44:08.855Z,2.37
2022-12-22T11:46:44.598Z,2.00
2022-12-22T11:49:37.556Z,2.00
2022-12-22T11:52:18.446Z,2.27
2022-12-22T11:55:15.123Z,2.10
2022-12-22T11:57:56.687Z,2.07
2022-12-22T12:00:32.608Z,1.83
2022-12-22T12:04:02.101Z,2.90
2022-12-22T12:06:52.864Z,2.30
2022-12-22T12:09:35.338Z,2.57
2022-12-22T12:12:13.460Z,2.40
2022-12-22T12:14:54.761Z,2.40
2022-12-22T12:17:33.927Z,2.00
2022-12-22T12:20:20.361Z,2.10
2022-12-22T12:23:00.502Z,2.30
2022-12-22T12:25:32.165Z,2.80
2022-12-22T12:28:15.013Z,2.27
2022-12-22T12:30:52.605Z,2.63
2022-12-22T12:33:27.271Z,2.90
2022-12-22T12:36:03.814Z,2.73
2022-12-22T12:39:07.512Z,3.03
2022-12-22T12:41:38.134Z,3.13
2022-12-22T12:44:12.671Z,2.23
2022-12-22T12:47:06.192Z,2.57
2022-12-22T12:50:07.098Z,3.07
2022-12-22T12:53:16.864Z,2.57
2022-12-22T12:56:06.728Z,2.47
2022-12-22T12:58:54.806Z,2.57
2022-12-22T13:02:01.367Z,2.13
2022-12-22T13:05:06.081Z,2.37
2022-12-22T13:08:09.823Z,2.60
2022-12-22T13:10:41.208Z,2.33
2022-12-22T13:13:13.192Z,2.07
2022-12-22T13:15:45.125Z,2.73
2022-12-22T13:18:49.806Z,2.40
2022-12-22T13:24:25.947Z,2.20
2022-12-22T13:26:56.280Z,2.47
2022-12-22T13:29:29.752Z,3.13
2022-12-22T13:32:01.514Z,2.20
2022-12-22T13:35:30.471Z,2.30
2022-12-22T13:37:42.757Z,2.20
2022-12-22T13:40:14.636Z,2.70
2022-12-22T13:42:46.304Z,2.20
2022-12-22T13:45:19.611Z,2.57
2022-12-22T13:47:49.024Z,2.70
2022-12-22T13:50:22.036Z,2.93
2022-12-22T13:52:52.314Z,2.40
2022-12-22T13:55:25.859Z,3.13
2022-12-22T13:57:58.493Z,2.13
2022-12-22T14:00:29.537Z,3.27
2022-12-22T14:02:57.908Z,3.30
2022-12-22T14:05:31.707Z,2.73
2022-12-22T14:08:02.659Z,2.90
2022-12-22T14:10:35.375Z,2.53
2022-12-22T14:13:08.477Z,3.10
2022-12-22T14:15:36.650Z,3.00
2022-12-22T14:18:05.595Z,3.77
2022-12-22T14:20:38.115Z,3.10
2022-12-22T14:23:09.388Z,2.17
2022-12-22T14:25:40.888Z,3.10
2022-12-22T14:28:17.554Z,2.60
2022-12-22T14:30:49.185Z,2.97
2022-12-22T14:33:27.306Z,3.30
2022-12-22T14:36:14.066Z,3.47
2022-12-22T14:38:44.549Z,3.50
2022-12-22T14:41:38.478Z,4.00
2022-12-22T14:44:07.759Z,2.70
2022-12-22T14:46:39.034Z,3.60
2022-12-22T14:49:13.059Z,2.90
2022-12-22T14:51:42.698Z,3.60
2022-12-22T14:54:21.213Z,3.50
2022-12-22T14:56:51.451Z,3.90
2022-12-22T14:59:28.831Z,4.30
2022-12-22T15:02:20.876Z,3.23
2022-12-22T15:04:49.220Z,3.00
2022-12-22T15:08:03.510Z,3.23
2022-12-22T15:10:15.999Z,3.57
2022-12-22T15:12:45.637Z,3.37
2022-12-22T15:15:20.204Z,2.60
2022-12-22T15:17:50.318Z,3.07
2022-12-22T15:20:21.644Z,3.17
2022-12-22T15:22:51.530Z,3.40
2022-12-22T15:25:21.847Z,3.60
2022-12-22T15:27:50.272Z,4.03
2022-12-22T15:30:27.737Z,3.60
2022-12-22T15:32:57.180Z,4.07
2022-12-22T15:35:30.136Z,3.10
2022-12-22T15:37:59.625Z,3.63
2022-12-22T15:40:29.305Z,3.13
2022-12-22T15:42:57.536Z,3.93
2022-12-22T15:45:25.891Z,3.10
2022-12-22T15:47:55.650Z,3.27
2022-12-22T15:50:26.955Z,3.50
2022-12-22T15:52:57.368Z,2.63
2022-12-22T15:55:28.001Z,3.37
2022-12-22T15:57:58.750Z,3.20
2022-12-22T16:00:27.237Z,3.60
2022-12-22T16:02:55.435Z,3.47
2022-12-22T16:05:23.681Z,3.50
2022-12-22T16:07:51.927Z,3.70
2022-12-22T16:10:24.487Z,3.23
2022-12-22T16:13:00.150Z,3.27
2022-12-22T16:15:30.767Z,2.97
2022-12-22T16:17:59.121Z,2.87
2022-12-22T16:20:34.296Z,2.80
2022-12-22T16:23:06.928Z,2.60
2022-12-22T16:25:37.622Z,2.80
2022-12-22T16:28:07.940Z,2.63
2022-12-22T16:30:36.151Z,3.03
2022-12-22T16:33:04.435Z,2.93
2022-12-22T16:35:33.055Z,2.77
2022-12-22T16:38:01.805Z,2.90
2022-12-22T16:40:32.285Z,2.57
2022-12-22T16:45:50.123Z,2.80
2022-12-22T16:48:23.185Z,3.23
2022-12-22T16:50:51.436Z,2.20
2022-12-22T16:53:19.523Z,2.93
2022-12-22T16:55:47.739Z,2.67
2022-12-22T16:58:15.939Z,3.10
2022-12-22T17:00:45.815Z,2.50
2022-12-22T17:03:17.977Z,3.30
2022-12-22T17:05:49.905Z,3.30
2022-12-22T17:08:22.889Z,2.90
2022-12-22T17:10:51.642Z,3.40
2022-12-22T17:13:20.790Z,3.20
2022-12-22T17:15:49.269Z,3.50
2022-12-22T17:18:21.262Z,2.90
2022-12-22T17:20:53.428Z,2.70
2022-12-22T17:23:30.744Z,2.20
2022-12-22T17:26:00.188Z,2.93
2022-12-22T17:28:28.951Z,3.40
2022-12-22T17:30:57.469Z,3.20
2022-12-22T17:33:27.012Z,2.93
2022-12-22T17:35:57.086Z,2.87
2022-12-22T17:38:27.124Z,2.70
2022-12-22T17:40:56.948Z,3.47
2022-12-22T17:43:25.083Z,3.33
2022-12-22T17:45:54.014Z,3.20
2022-12-22T17:48:22.033Z,2.80
2022-12-22T17:50:51.611Z,2.73
2022-12-22T17:53:21.244Z,3.10
2022-12-22T17:56:07.837Z,3.43
2022-12-22T17:58:37.021Z,3.37
2022-12-22T18:01:05.158Z,2.73
2022-12-22T18:03:33.841Z,2.50
2022-12-22T18:06:03.620Z,3.07
2022-12-22T18:08:32.219Z,2.73
2022-12-22T18:11:02.257Z,2.83
2022-12-22T18:13:30.362Z,2.97
2022-12-22T18:15:58.562Z,3.30
2022-12-22T18:18:27.879Z,3.23
2022-12-22T18:21:07.138Z,3.43
2022-12-22T18:23:38.298Z,3.27
2022-12-22T18:26:08.549Z,3.90
2022-12-22T18:28:37.186Z,2.93
2022-12-22T18:31:05.643Z,3.43
2022-12-22T18:33:33.741Z,3.00
2022-12-22T18:36:02.354Z,3.50
2022-12-22T18:38:33.246Z,3.10
2022-12-22T18:41:02.789Z,3.10
2022-12-22T18:43:30.989Z,2.93
2022-12-22T18:45:59.216Z,2.60
2022-12-22T18:48:27.271Z,3.60
2022-12-22T18:50:55.509Z,3.00
2022-12-22T18:53:28.980Z,2.70
2022-12-22T18:55:57.628Z,2.90
2022-12-22T18:58:27.863Z,3.00
2022-12-22T19:00:56.896Z,3.37
2022-12-22T19:03:29.048Z,3.10
2022-12-22T19:05:57.944Z,3.23
2022-12-22T19:08:27.629Z,3.43
2022-12-22T19:10:57.603Z,2.80
2022-12-22T19:13:32.137Z,3.10
2022-12-22T19:16:00.381Z,3.33
2022-12-22T19:18:28.967Z,3.57
2022-12-22T19:20:57.409Z,2.90
2022-12-22T19:23:26.834Z,3.30
2022-12-22T19:25:57.181Z,3.40
2022-12-22T19:28:29.412Z,3.50
2022-12-22T19:30:57.986Z,3.77
2022-12-22T19:33:30.413Z,4.07
2022-12-22T19:36:01.154Z,3.00
2022-12-22T19:38:30.446Z,3.30
2022-12-22T19:41:01.493Z,3.20
2022-12-22T19:43:31.467Z,2.80
2022-12-22T19:45:59.590Z,3.70
2022-12-22T19:48:28.626Z,3.00
2022-12-22T19:50:56.799Z,3.10
2022-12-22T19:53:26.529Z,2.87
2022-12-22T19:55:57.300Z,3.20
2022-12-22T19:58:27.604Z,2.43
2022-12-22T20:00:57.247Z,3.33
2022-12-22T20:03:26.842Z,2.67
2022-12-22T20:05:55.229Z,2.93
2022-12-22T20:08:23.343Z,3.00
2022-12-22T20:10:56.485Z,2.40
2022-12-22T20:13:31.194Z,3.30
2022-12-22T20:16:01.193Z,3.10
2022-12-22T20:18:30.492Z,3.10
2022-12-22T20:21:03.293Z,3.50
2022-12-22T20:23:35.606Z,3.03
2022-12-22T20:26:06.552Z,2.70
2022-12-22T20:28:36.896Z,2.53
2022-12-22T20:31:07.654Z,2.60
2022-12-22T20:33:35.920Z,2.60
2022-12-22T20:36:05.583Z,2.70
2022-12-22T20:38:38.235Z,3.10
2022-12-22T20:41:08.940Z,2.40
2022-12-22T20:43:39.061Z,2.50
2022-12-22T20:46:15.111Z,3.50
2022-12-22T20:48:45.692Z,2.67
2022-12-22T20:51:16.368Z,2.40
2022-12-22T20:53:45.381Z,3.37
2022-12-22T20:56:22.977Z,2.20
2022-12-22T20:58:51.315Z,2.40
2022-12-22T21:01:21.165Z,2.40
2022-12-22T21:03:49.290Z,2.40
2022-12-22T21:06:25.990Z,2.10
2022-12-22T21:08:55.511Z,1.93
2022-12-22T21:11:24.679Z,2.50
2022-12-22T21:13:53.192Z,2.43
2022-12-22T21:16:26.027Z,2.10
2022-12-22T21:18:55.722Z,2.33
2022-12-22T21:21:24.283Z,2.20
2022-12-22T21:23:52.349Z,2.20
2022-12-22T21:26:26.037Z,3.50
2022-12-22T21:28:54.913Z,2.63
2022-12-22T21:31:24.528Z,2.90
2022-12-22T21:33:52.656Z,2.23
2022-12-22T21:36:23.761Z,2.10
2022-12-22T21:38:55.145Z,2.40
2022-12-22T21:41:44.707Z,2.30
2022-12-22T21:44:13.499Z,2.60
2022-12-22T21:46:45.235Z,2.10
2022-12-22T21:49:19.617Z,2.37
2022-12-22T21:51:48.248Z,2.20
2022-12-22T21:54:16.434Z,2.37
2022-12-22T21:56:44.506Z,2.50
2022-12-22T21:59:12.948Z,2.67
2022-12-22T22:01:44.878Z,2.40
2022-12-22T22:04:13.448Z,2.03
2022-12-22T22:06:41.803Z,2.17
2022-12-22T22:09:10.076Z,2.20
2022-12-22T22:11:58.841Z,2.20
2022-12-22T22:14:27.122Z,2.00
2022-12-22T22:16:56.596Z,2.30
2022-12-22T22:19:24.684Z,2.00
2022-12-22T22:21:52.771Z,2.07
2022-12-22T22:24:20.915Z,2.10
2022-12-22T22:26:51.493Z,2.17
2022-12-22T22:29:19.903Z,1.90
2022-12-22T22:31:48.055Z,2.53
2022-12-22T22:34:17.580Z,2.20
2022-12-22T22:36:45.779Z,2.20
2022-12-22T22:39:13.990Z,2.30
2022-12-22T22:41:43.805Z,2.53
2022-12-22T22:44:12.167Z,2.53
2022-12-22T22:46:40.853Z,2.20
2022-12-22T22:49:09.452Z,2.40
2022-12-22T22:51:38.879Z,2.17
2022-12-22T22:54:07.177Z,2.67
2022-12-22T22:56:35.424Z,2.43
2022-12-22T22:59:03.951Z,2.43
2022-12-22T23:01:32.255Z,2.63
2022-12-22T23:04:00.494Z,2.07
2022-12-22T23:06:28.890Z,2.20
2022-12-22T23:08:58.342Z,2.10
2022-12-22T23:11:29.320Z,2.27
2022-12-22T23:13:57.464Z,2.20
2022-12-22T23:16:25.616Z,2.37
2022-12-22T23:18:54.591Z,1.50
2022-12-22T23:21:23.948Z,3.20
2022-12-22T23:23:56.196Z,2.97
2022-12-22T23:26:26.308Z,6.07
2022-12-22T23:29:00.997Z,2.73
2022-12-22T23:31:32.501Z,2.50
2022-12-22T23:34:00.901Z,2.40
2022-12-22T23:36:29.447Z,2.50
2022-12-22T23:38:57.518Z,2.50
2022-12-22T23:41:26.957Z,2.30
2022-12-22T23:43:55.409Z,2.73
2022-12-22T23:46:23.942Z,2.33
2022-12-22T23:48:53.409Z,2.50
2022-12-22T23:51:22.464Z,3.10
2022-12-22T23:53:50.600Z,2.40
2022-12-22T23:56:18.792Z,3.80
2022-12-22T23:58:54.164Z,3.40
